Time;durP1;ratioP1;P1;durP2;ratioP2;P2;SDS_P1;SDS_P2;PMS_P1;PMS_P2;Temp;Humidity;BMP_temperature;BMP_pressure;BME280_temperature;BME280_humidity;BME280_pressure;Samples;Min_cycle;Max_cycle;Signal;HPM_P1;HPM_P2
2022/03/25 00:02:19;;;;;;;27.80;14.95;;;;;;;;;;5029795;28;20026;-86
2022/03/25 00:04:45;;;;;;;34.03;15.23;;;;;;;;;;5026070;28;20040;-87
2022/03/25 00:07:11;;;;;;;26.98;15.85;;;;;;;;;;5022163;28;20022;-89
2022/03/25 00:09:37;;;;;;;31.08;15.88;;;;;;;;;;5000211;28;20034;-89
2022/03/25 00:12:08;;;;;;;28.02;15.48;;;9.20;86.70;;;;;;4991881;28;20030;-87
2022/03/25 00:14:38;;;;;;;27.50;14.73;;;9.10;86.70;;;;;;4985676;28;20046;-89
2022/03/25 00:17:04;;;;;;;27.75;15.40;;;9.10;87.20;;;;;;4997132;28;20113;-90
2022/03/25 00:19:30;;;;;;;31.90;18.17;;;;;;;;;;4996290;28;20027;-87
2022/03/25 00:21:56;;;;;;;30.17;15.65;;;;;;;;;;4996145;28;20042;-90
2022/03/25 00:24:24;;;;;;;30.75;16.55;;;;;;;;;;5010040;28;20040;-90
2022/03/25 00:26:51;;;;;;;28.83;15.93;;;;;;;;;;4998092;28;20042;-90
2022/03/25 00:29:17;;;;;;;32.72;16.80;;;;;;;;;;5000558;28;20123;-90
2022/03/25 00:31:43;;;;;;;29.15;16.38;;;;;;;;;;5002900;28;20027;-89
2022/03/25 00:34:09;;;;;;;40.00;17.25;;;;;;;;;;5017721;28;20495;-88
2022/03/25 00:36:35;;;;;;;34.85;17.25;;;;;;;;;;5018256;28;20026;-89
2022/03/25 00:39:01;;;;;;;36.65;17.60;;;;;;;;;;4984140;28;20033;-90
2022/03/25 00:41:32;;;;;;;29.63;16.42;;;8.60;91.80;;;;;;4999525;28;20046;-88
2022/03/25 00:44:18;;;;;;;33.20;17.02;;;;;;;;;;5000958;28;20029;-89
2022/03/25 00:47:02;;;;;;;27.33;15.73;;;;;;;;;;5000318;28;20030;-89
2022/03/25 00:50:06;;;;;;;28.85;15.60;;;8.50;92.80;;;;;;4993216;28;20061;-89
2022/03/25 00:52:37;;;;;;;32.75;16.02;;;;;;;;;;5003827;28;20037;-88
2022/03/25 00:55:16;;;;;;;27.88;14.98;;;8.50;93.00;;;;;;5002131;28;20404;-86
2022/03/25 04:43:11;;;;;;;33.38;17.08;;;5.90;99.90;;;;;;5044947;28;20068;-82
2022/03/25 04:45:43;;;;;;;35.60;17.25;;;5.80;99.90;;;;;;5041299;28;20033;-84
2022/03/25 04:48:46;;;;;;;35.30;16.77;;;5.80;99.90;;;;;;5028967;28;20436;-83
2022/03/25 04:51:38;;;;;;;33.58;17.83;;;5.80;99.90;;;;;;5026646;28;20454;-83
2022/03/25 04:54:27;;;;;;;40.65;17.73;;;5.70;99.90;;;;;;5029021;28;20025;-83
2022/03/25 04:57:38;;;;;;;30.63;16.35;;;5.70;99.90;;;;;;5050544;28;20017;-82
2022/03/25 05:01:15;;;;;;;30.17;16.80;;;5.60;99.90;;;;;;5047404;28;20048;-82
2022/03/25 05:04:28;;;;;;;32.90;17.42;;;5.60;99.90;;;;;;5044006;28;20072;-82
2022/03/25 05:08:21;;;;;;;35.17;16.92;;;5.60;99.90;;;;;;5049058;28;20037;-82
2022/03/25 05:11:57;;;;;;;30.02;16.85;;;5.60;99.90;;;;;;5035871;28;20120;-82
2022/03/25 05:14:45;;;;;;;31.85;16.25;;;5.60;99.90;;;;;;5054936;28;20089;-82
2022/03/25 05:17:59;;;;;;;33.10;16.85;;;5.50;99.90;;;;;;5054175;28;20083;-83
2022/03/25 05:20:52;;;;;;;34.10;16.77;;;5.50;99.90;;;;;;5048352;28;20025;-84
2022/03/25 05:23:48;;;;;;;37.08;17.90;;;5.50;99.90;;;;;;4989386;28;20040;-82
2022/03/25 05:26:36;;;;;;;38.60;18.85;;;;;;;;;;5010618;28;20042;-82
2022/03/25 05:29:22;;;;;;;34.70;16.65;;;5.50;99.90;;;;;;5017290;28;20045;-83
2022/03/25 05:32:39;;;;;;;33.67;17.60;;;5.50;99.90;;;;;;5035454;28;20036;-83
2022/03/25 05:36:01;;;;;;;34.97;17.85;;;5.50;99.90;;;;;;5011002;28;20093;-84
2022/03/25 05:39:14;;;;;;;31.48;16.98;;;5.50;99.90;;;;;;4999900;28;20026;-84
2022/03/25 05:42:14;;;;;;;35.97;18.33;;;5.50;99.90;;;;;;4974214;28;20039;-82
2022/03/25 05:48:28;;;;;;;37.53;18.65;;;5.50;99.90;;;;;;5014772;28;20064;-82
2022/03/25 05:51:29;;;;;;;35.13;17.85;;;5.50;99.90;;;;;;4990981;28;20022;-82
2022/03/25 05:54:10;;;;;;;40.28;17.75;;;5.50;99.90;;;;;;5008385;28;20034;-82
2022/03/25 05:56:45;;;;;;;48.08;18.20;;;5.50;99.90;;;;;;4985000;28;20023;-88
2022/03/25 05:59:11;;;;;;;49.17;19.30;;;5.50;99.90;;;;;;5008402;28;20034;-83
2022/03/25 06:01:36;;;;;;;42.95;18.50;;;5.50;99.90;;;;;;5023960;28;20083;-82
2022/03/25 06:04:04;;;;;;;38.08;18.80;;;7.90;99.90;;;;;;5029454;28;20394;-83
2022/03/25 06:06:30;;;;;;;40.00;18.38;;;;;;;;;;5026879;28;20032;-84
2022/03/25 06:08:56;;;;;;;40.72;18.40;;;;;;;;;;5040733;28;20242;-84
2022/03/25 06:11:22;;;;;;;38.55;18.35;;;;;;;;;;5027614;28;20040;-85
2022/03/25 06:13:48;;;;;;;36.17;19.27;;;;;;;;;;5021042;28;20072;-87
2022/03/25 06:16:14;;;;;;;38.90;18.13;;;;;;;;;;5020306;28;20046;-83
2022/03/25 06:18:40;;;;;;;39.83;18.45;;;;;;;;;;5036685;28;20029;-85
2022/03/25 06:21:06;;;;;;;39.90;17.48;;;;;;;;;;4997276;28;20033;-83
2022/03/25 06:23:32;;;;;;;43.58;17.92;;;5.70;99.90;;;;;;5008213;28;20029;-84
2022/03/25 06:25:59;;;;;;;36.00;17.85;;;;;;;;;;5024036;28;20037;-84
2022/03/25 06:28:25;;;;;;;36.47;18.27;;;;;;;;;;5036734;28;20030;-86
2022/03/25 06:30:51;;;;;;;39.67;18.25;;;;;;;;;;5037790;28;20029;-87
2022/03/25 06:33:17;;;;;;;34.38;18.02;;;;;;;;;;5024459;28;20056;-85
2022/03/25 06:35:44;;;;;;;37.85;17.92;;;;;;;;;;5016872;28;20026;-85
2022/03/25 06:38:10;;;;;;;37.83;18.50;;;;;;;;;;5025223;28;20037;-84
2022/03/25 06:40:37;;;;;;;38.53;19.27;;;;;;;;;;5023795;28;20025;-86
2022/03/25 06:43:05;;;;;;;39.97;17.90;;;;;;;;;;5019230;28;20034;-85
2022/03/25 06:45:31;;;;;;;43.53;19.42;;;;;;;;;;5021759;28;20083;-85
2022/03/25 06:47:58;;;;;;;40.42;18.48;;;;;;;;;;5015143;28;20111;-89
2022/03/25 06:50:24;;;;;;;33.58;18.52;;;;;;;;;;5011395;28;20034;-85
2022/03/25 06:52:51;;;;;;;39.17;18.75;;;6.60;99.90;;;;;;5015511;28;20131;-87
2022/03/25 06:55:18;;;;;;;40.25;20.25;;;8.30;99.90;;;;;;5012739;28;20037;-89
2022/03/25 06:57:44;;;;;;;45.65;19.10;;;;;;;;;;5016765;28;20049;-89
2022/03/25 07:00:12;;;;;;;37.15;18.17;;;6.90;99.90;;;;;;5018538;28;20034;-89
2022/03/25 07:02:39;;;;;;;36.13;18.70;;;7.10;99.90;;;;;;5031407;28;20033;-87
2022/03/25 07:05:05;;;;;;;36.80;17.98;;;;;;;;;;5010799;28;20119;-88
2022/03/25 07:07:34;;;;;;;38.33;19.38;;;;;;;;;;5021025;28;20009;-88
2022/03/25 07:10:00;;;;;;;41.22;19.38;;;7.30;99.90;;;;;;5017975;28;20030;-89
2022/03/25 07:12:26;;;;;;;36.38;19.40;;;;;;;;;;5035559;28;20025;-89
2022/03/25 07:14:52;;;;;;;39.85;19.52;;;;;;;;;;5016890;28;20049;-89
2022/03/25 07:17:18;;;;;;;36.78;17.88;;;;;;;;;;5017352;28;20048;-87
2022/03/25 07:19:43;;;;;;;43.20;19.27;;;7.70;99.90;;;;;;5019448;28;20531;-88
2022/03/25 07:22:09;;;;;;;36.50;19.15;;;;;;;;;;5017859;28;20033;-88
2022/03/25 07:24:35;;;;;;;43.92;20.40;;;8.10;99.90;;;;;;5016215;28;20017;-88
2022/03/25 07:27:01;;;;;;;43.95;20.55;;;;;;;;;;5039904;28;20522;-89
2022/03/25 07:29:27;;;;;;;41.15;20.58;;;;;;;;;;5038044;28;20913;-87
2022/03/25 07:31:53;;;;;;;49.97;21.58;;;8.20;98.90;;;;;;5022953;28;20044;-91
2022/03/25 07:34:19;;;;;;;42.55;21.08;;;;;;;;;;5015212;28;20499;-87
2022/03/25 07:36:45;;;;;;;41.95;20.45;;;;;;;;;;5013973;28;20025;-87
2022/03/25 07:39:11;;;;;;;57.25;32.22;;;;;;;;;;5013944;28;20148;-89
2022/03/25 07:41:37;;;;;;;39.50;19.75;;;;;;;;;;5018043;28;20072;-90
2022/03/25 07:44:03;;;;;;;45.42;21.40;;;9.00;95.90;;;;;;5015793;28;20040;-89
2022/03/25 07:46:29;;;;;;;46.55;20.63;;;;;;;;;;5018987;28;20041;-90
2022/03/25 07:48:55;;;;;;;39.25;20.17;;;9.40;94.80;;;;;;5021277;28;20114;-88
2022/03/25 07:51:21;;;;;;;43.80;21.33;;;9.70;94.50;;;;;;5031951;28;20060;-88
2022/03/25 07:53:46;;;;;;;44.17;20.95;;;11.10;94.50;;;;;;5033328;28;20037;-90
2022/03/25 07:56:12;;;;;;;50.17;21.98;;;;;;;;;;5016315;28;20107;-90
2022/03/25 07:58:38;;;;;;;40.67;20.65;;;10.10;92.20;;;;;;5014713;28;20042;-89
2022/03/25 08:01:04;;;;;;;55.05;23.08;;;10.00;92.70;;;;;;5019661;28;20059;-88
2022/03/25 08:03:30;;;;;;;36.88;21.52;;;10.40;91.00;;;;;;5013046;28;20091;-88
2022/03/25 08:05:56;;;;;;;42.08;23.25;;;12.60;92.10;;;;;;5014811;28;20034;-90
2022/03/25 08:08:23;;;;;;;41.17;21.48;;;10.90;89.50;;;;;;5027844;28;20052;-88
2022/03/25 08:10:55;;;;;;;48.33;23.55;;;11.00;90.10;;;;;;5015366;28;20030;-88
2022/03/25 08:13:21;;;;;;;44.08;21.80;;;11.30;86.10;;;;;;5052227;28;20037;-90
2022/03/25 08:15:47;;;;;;;47.05;23.00;;;12.50;87.10;;;;;;5025774;28;20037;-87
2022/03/25 08:18:13;;;;;;;44.65;23.63;;;14.30;89.00;;;;;;5025271;28;20073;-86
2022/03/25 08:20:44;;;;;;;48.90;24.30;;;13.40;84.10;;;;;;5025409;28;20034;-87
2022/03/25 08:27:48;;;;;;;50.60;23.10;;;12.00;81.00;;;;;;5031560;28;20033;-86
2022/03/25 08:28:46;;;;;;;46.33;22.23;;;14.60;81.70;;;;;;5036704;28;19969;-89
2022/03/25 08:31:11;;;;;;;45.85;23.02;;;12.30;77.80;;;;;;5025017;28;20053;-89
2022/03/25 08:33:37;;;;;;;45.95;23.90;;;;;;;;;;5021509;28;20093;-89
2022/03/25 08:36:03;;;;;;;45.30;24.20;;;12.60;74.50;;;;;;5044206;28;20029;-89
2022/03/25 08:38:29;;;;;;;44.55;23.55;;;;;;;;;;5028087;28;20033;-89
2022/03/25 08:40:55;;;;;;;42.53;24.10;;;13.00;73.00;;;;;;5028502;28;20037;-86
2022/03/25 08:43:21;;;;;;;43.30;23.30;;;13.10;74.30;;;;;;5041199;28;20029;-87
2022/03/25 08:45:47;;;;;;;47.40;25.08;;;;;;;;;;5022365;28;20029;-89
2022/03/25 08:48:21;;;;;;;42.17;24.65;;;13.40;69.50;;;;;;5022727;28;20031;-89
2022/03/25 08:50:47;;;;;;;47.05;24.98;;;;;;;;;;5021759;28;20110;-87
2022/03/25 08:53:13;;;;;;;42.85;24.20;;;;;;;;;;5029457;28;20034;-87
2022/03/25 08:55:39;;;;;;;49.28;24.75;;;13.90;68.10;;;;;;5014012;28;20072;-89
2022/03/25 08:58:11;;;;;;;41.35;24.35;;;;;;;;;;5025959;28;20124;-90
2022/03/25 09:00:38;;;;;;;44.17;24.70;;;14.20;64.60;;;;;;5022929;28;20030;-89
2022/03/25 09:03:05;;;;;;;46.35;25.33;;;14.20;66.30;;;;;;5022275;28;20041;-89
2022/03/25 09:05:31;;;;;;;48.33;24.73;;;14.20;64.80;;;;;;5024020;28;20030;-89
2022/03/25 09:07:57;;;;;;;47.30;23.90;;;15.10;63.70;;;;;;5021568;28;20099;-86
2022/03/25 09:10:23;;;;;;;41.97;23.55;;;;;;;;;;5014675;28;20025;-88
2022/03/25 09:12:49;;;;;;;45.92;24.52;;;;;;;;;;5019655;28;20030;-88
2022/03/25 09:15:15;;;;;;;47.45;25.90;;;14.70;61.50;;;;;;5028222;28;20029;-86
2022/03/25 09:17:45;;;;;;;46.10;26.10;;;14.70;61.00;;;;;;5033508;28;20316;-88
2022/03/25 09:20:11;;;;;;;41.60;24.00;;;15.50;62.30;;;;;;5027810;28;20029;-90
2022/03/25 09:22:37;;;;;;;41.40;24.80;;;14.70;62.40;;;;;;5029964;28;20029;-89
2022/03/25 09:25:05;;;;;;;46.17;25.45;;;15.10;59.60;;;;;;5025778;28;20454;-87
2022/03/25 09:27:33;;;;;;;43.55;24.77;;;15.10;60.20;;;;;;5023385;28;20021;-89
2022/03/25 09:30:09;;;;;;;45.35;24.20;;;15.10;62.20;;;;;;5034932;28;20471;-88
2022/03/25 09:32:38;;;;;;;43.42;25.20;;;15.10;60.20;;;;;;5044354;28;20026;-88
2022/03/25 09:35:08;;;;;;;43.30;24.77;;;15.30;60.60;;;;;;5037960;28;20025;-90
2022/03/25 09:37:36;;;;;;;48.53;25.27;;;15.50;58.10;;;;;;5044048;28;20647;-89
2022/03/25 09:40:07;;;;;;;45.10;24.35;;;15.50;59.60;;;;;;5045335;28;20025;-90
2022/03/25 09:42:34;;;;;;;43.55;24.38;;;15.50;59.50;;;;;;5018621;28;20021;-89
2022/03/25 09:45:04;;;;;;;49.58;25.67;;;15.60;58.70;;;;;;5022487;28;20123;-87
2022/03/25 09:47:34;;;;;;;45.67;25.08;;;;;;;;;;5021695;28;20029;-88
2022/03/25 09:50:00;;;;;;;47.17;25.23;;;16.70;58.10;;;;;;5037524;28;20122;-88
2022/03/25 09:52:34;;;;;;;44.25;24.60;;;15.70;57.80;;;;;;5024290;28;20026;-87
2022/03/25 09:55:00;;;;;;;44.47;23.98;;;15.90;58.00;;;;;;5033478;28;20311;-89
2022/03/25 09:57:27;;;;;;;42.92;24.40;;;16.20;58.70;;;;;;5037937;28;20143;-87
2022/03/25 09:59:55;;;;;;;44.72;25.27;;;16.30;57.20;;;;;;5018082;28;20465;-88
2022/03/25 10:02:24;;;;;;;40.60;25.58;;;16.50;57.80;;;;;;5020048;28;20021;-90
2022/03/25 10:04:52;;;;;;;45.80;25.40;;;16.50;56.50;;;;;;5009823;28;20108;-88
2022/03/25 10:07:27;;;;;;;42.13;25.33;;;16.60;57.60;;;;;;5020137;28;20026;-85
2022/03/25 10:10:11;;;;;;;47.63;26.77;;;18.70;57.60;;;;;;5036292;28;20017;-88
2022/03/25 10:12:38;;;;;;;43.88;25.50;;;16.60;56.00;;;;;;5036050;28;20063;-89
2022/03/25 10:15:21;;;;;;;43.78;24.67;;;16.80;55.40;;;;;;5028583;28;20337;-89
2022/03/25 10:18:02;;;;;;;47.75;24.30;;;17.00;54.70;;;;;;5020099;28;20025;-89
2022/03/25 10:20:32;;;;;;;47.35;24.92;;;17.10;53.70;;;;;;5015858;28;20022;-88
2022/03/25 10:23:20;;;;;;;44.63;25.13;;;17.20;53.80;;;;;;5019953;28;20022;-87
2022/03/25 10:25:50;;;;;;;47.00;26.27;;;18.40;54.30;;;;;;5018294;28;20459;-88
2022/03/25 10:28:20;;;;;;;45.40;26.27;;;17.40;54.20;;;;;;5018117;28;20078;-89
2022/03/25 10:30:50;;;;;;;41.63;24.52;;;17.50;55.40;;;;;;5016041;28;20075;-90
2022/03/25 10:33:36;;;;;;;;;;;17.60;52.90;;;;;;5020449;28;20029;-89
2022/03/25 10:36:07;;;;;;;42.80;24.02;;;17.70;51.10;;;;;;5023201;28;19924;-89
2022/03/25 10:38:46;;;;;;;40.45;24.00;;;16.60;51.00;;;;;;5032239;28;20067;-88
2022/03/25 10:41:15;;;;;;;43.80;25.45;;;17.90;51.00;;;;;;5016888;28;20025;-88
2022/03/25 10:44:03;;;;;;;;;;;;;;;;;;;;;
2022/03/25 10:46:38;;;;;;;46.08;25.20;;;18.00;49.00;;;;;;5038445;28;20112;-90
2022/03/25 10:49:09;;;;;;;44.80;24.50;;;18.00;50.30;;;;;;5003540;28;20030;-88
2022/03/25 10:51:38;;;;;;;45.60;25.27;;;18.10;50.00;;;;;;5028422;28;20030;-90
2022/03/25 10:54:09;;;;;;;38.42;23.50;;;18.20;50.50;;;;;;5018194;28;20465;-90
2022/03/25 10:56:54;;;;;;;41.47;24.65;;;18.30;50.80;;;;;;5012408;28;20029;-89
2022/03/25 10:59:25;;;;;;;40.92;23.90;;;18.30;48.10;;;;;;5019076;28;20241;-88
2022/03/25 11:01:56;;;;;;;42.83;24.20;;;18.40;48.90;;;;;;5025987;28;20033;-89
2022/03/25 11:04:22;;;;;;;37.45;23.38;;;18.40;49.30;;;;;;5005442;28;20026;-88
2022/03/25 11:06:49;;;;;;;40.03;23.52;;;18.50;48.70;;;;;;5016877;28;20056;-89
2022/03/25 11:09:18;;;;;;;44.63;25.13;;;19.00;48.00;;;;;;5018745;28;20057;-89
2022/03/25 11:11:46;;;;;;;36.50;23.80;;;19.20;47.70;;;;;;5022368;28;20096;-90
2022/03/25 11:14:15;;;;;;;34.42;22.42;;;19.30;47.40;;;;;;5019367;28;20032;-88
2022/03/25 11:16:56;;;;;;;37.13;22.70;;;18.90;45.40;;;;;;5016614;28;20026;-88
2022/03/25 11:19:22;;;;;;;;;;;19.00;45.50;;;;;;5035997;28;20029;-89
2022/03/25 11:21:49;;;;;;;35.50;19.58;;;18.90;43.10;;;;;;5015471;28;20008;-89
2022/03/25 11:24:25;;;;;;;32.88;19.95;;;18.90;42.20;;;;;;5034954;28;20384;-89
2022/03/25 11:26:53;;;;;;;34.17;20.52;;;18.60;41.00;;;;;;5018814;28;20560;-87
2022/03/25 11:29:26;;;;;;;33.67;18.70;;;18.70;42.20;;;;;;5020999;28;20030;-89
2022/03/25 11:32:14;;;;;;;35.78;22.48;;;18.50;42.00;;;;;;5016086;28;20479;-90
2022/03/25 11:34:55;;;;;;;34.47;20.70;;;18.80;43.10;;;;;;5017572;28;20041;-89
2022/03/25 11:37:22;;;;;;;37.65;22.38;;;19.00;45.80;;;;;;5034334;28;20091;-89
2022/03/25 11:40:08;;;;;;;37.20;22.98;;;19.50;45.30;;;;;;5017288;28;20030;-87
2022/03/25 11:42:39;;;;;;;39.53;23.85;;;19.10;44.50;;;;;;5020548;28;20040;-89
2022/03/25 11:45:31;;;;;;;41.28;23.17;;;19.10;45.70;;;;;;5024724;28;20033;-90
2022/03/25 11:48:06;;;;;;;41.65;24.00;;;19.20;45.40;;;;;;5035697;28;20033;-87
2022/03/25 11:50:40;;;;;;;41.88;24.90;;;19.40;45.10;;;;;;5015042;28;20025;-88
2022/03/25 11:53:11;;;;;;;39.40;23.52;;;19.30;44.50;;;;;;5024587;28;20503;-89
2022/03/25 11:55:56;;;;;;;38.92;23.83;;;19.40;45.20;;;;;;5020385;28;20026;-89
2022/03/25 11:58:22;;;;;;;38.47;23.38;;;19.30;43.50;;;;;;5021581;28;20479;-88
2022/03/25 12:00:53;;;;;;;36.53;23.60;;;19.30;45.60;;;;;;5036139;28;20076;-89
2022/03/25 12:03:19;;;;;;;36.33;23.20;;;19.60;45.00;;;;;;5032972;28;20018;-89
2022/03/25 12:06:01;;;;;;;35.58;22.90;;;19.60;45.70;;;;;;5052664;28;20021;-88
2022/03/25 12:08:28;;;;;;;37.90;23.00;;;19.80;44.00;;;;;;5030537;28;20092;-89
2022/03/25 12:10:56;;;;;;;34.42;20.85;;;19.80;43.10;;;;;;5037161;28;20014;-88
2022/03/25 12:13:22;;;;;;;34.88;20.65;;;19.80;41.70;;;;;;5034362;28;20021;-89
2022/03/25 12:15:52;;;;;;;34.53;22.25;;;20.10;40.60;;;;;;5051338;28;20017;-87
2022/03/25 12:18:46;;;;;;;36.30;20.70;;;19.80;41.10;;;;;;5040608;28;20014;-89
2022/03/25 12:21:12;;;;;;;37.25;22.83;;;;;;;;;;5034058;28;20323;-90
2022/03/25 12:23:53;;;;;;;35.30;21.58;;;19.70;41.20;;;;;;5033639;28;20014;-89
2022/03/25 12:26:31;;;;;;;35.50;21.35;;;19.60;42.30;;;;;;5039152;28;20033;-90
2022/03/25 12:28:57;;;;;;;32.80;19.77;;;;;;;;;;5042093;28;20005;-91
2022/03/25 12:31:25;;;;;;;34.45;22.30;;;19.80;41.00;;;;;;5039421;28;20021;-88
2022/03/25 12:34:00;;;;;;;34.55;22.70;;;20.50;43.20;;;;;;5050747;28;20012;-90
2022/03/25 12:36:31;;;;;;;36.15;23.13;;;19.90;42.70;;;;;;5054125;28;20022;-89
2022/03/25 12:39:00;;;;;;;35.67;22.88;;;19.90;42.90;;;;;;5036291;28;20010;-88
2022/03/25 12:41:27;;;;;;;35.47;23.40;;;19.90;45.20;;;;;;5031171;28;20038;-89
2022/03/25 12:44:10;;;;;;;33.17;22.02;;;20.00;42.90;;;;;;5029861;28;20033;-87
2022/03/25 12:46:36;;;;;;;31.00;19.58;;;20.10;41.60;;;;;;5035758;28;20033;-88
2022/03/25 12:49:06;;;;;;;34.83;21.33;;;20.00;41.70;;;;;;5018660;28;20394;-88
2022/03/25 12:51:35;;;;;;;;;;;20.10;39.60;;;;;;5037889;28;20146;-89
2022/03/25 12:54:02;;;;;;;36.20;20.42;;;18.70;39.30;;;;;;5017060;28;20000;-88
2022/03/25 12:56:28;;;;;;;29.70;18.77;;;19.80;42.60;;;;;;5005944;28;20037;-87
2022/03/25 12:58:54;;;;;;;30.00;19.52;;;;;;;;;;5036755;28;20032;-85
2022/03/25 13:01:20;;;;;;;27.25;18.85;;;19.90;39.20;;;;;;5015345;28;20060;-89
2022/03/25 13:03:47;;;;;;;28.70;19.13;;;19.90;39.50;;;;;;5015993;28;20414;-88
2022/03/25 13:06:18;;;;;;;28.75;19.23;;;19.90;41.80;;;;;;5020142;28;20029;-89
2022/03/25 13:08:45;;;;;;;31.23;19.38;;;20.10;39.70;;;;;;5016395;28;20090;-88
2022/03/25 13:11:13;;;;;;;31.20;20.40;;;20.20;40.60;;;;;;5024171;28;20032;-87
2022/03/25 13:13:42;;;;;;;33.40;21.08;;;20.10;39.50;;;;;;5020340;28;20029;-86
2022/03/25 13:16:09;;;;;;;31.42;20.58;;;21.10;41.70;;;;;;5018084;28;20030;-87
2022/03/25 13:18:37;;;;;;;32.42;20.65;;;20.00;40.10;;;;;;5037918;28;20037;-87
2022/03/25 13:21:09;;;;;;;32.08;20.00;;;20.10;39.90;;;;;;5027732;28;20039;-87
2022/03/25 13:23:36;;;;;;;29.83;19.92;;;20.00;39.50;;;;;;5020268;28;20060;-89
2022/03/25 13:26:04;;;;;;;30.08;19.15;;;20.00;39.20;;;;;;5021531;28;20449;-87
2022/03/25 13:28:41;;;;;;;32.10;20.85;;;19.80;39.30;;;;;;5025480;28;20029;-89
2022/03/25 13:31:10;;;;;;;30.25;19.00;;;19.80;39.20;;;;;;5015430;28;20026;-87
2022/03/25 13:33:44;;;;;;;29.63;18.60;;;19.80;38.50;;;;;;5022673;28;20029;-88
2022/03/25 13:36:11;;;;;;;34.20;18.90;;;19.90;39.10;;;;;;5020635;28;20025;-87
2022/03/25 13:38:37;;;;;;;30.85;17.73;;;20.10;37.90;;;;;;5021277;28;20029;-89
2022/03/25 13:41:12;;;;;;;30.73;17.95;;;20.10;38.70;;;;;;5015570;28;20033;-89
2022/03/25 13:43:48;;;;;;;31.02;18.83;;;20.20;38.10;;;;;;5012771;28;20097;-87
2022/03/25 13:46:25;;;;;;;27.83;19.15;;;20.30;39.70;;;;;;5034227;28;20029;-89
2022/03/25 13:48:55;;;;;;;30.15;19.50;;;20.50;39.80;;;;;;5032319;28;20585;-91
2022/03/25 13:51:27;;;;;;;28.42;18.48;;;20.30;38.90;;;;;;5035870;28;20033;-90
2022/03/25 13:54:05;;;;;;;30.27;18.77;;;19.60;38.90;;;;;;5020882;28;20096;-89
2022/03/25 13:56:50;;;;;;;35.63;20.13;;;20.30;38.70;;;;;;5040688;28;20052;-88
2022/03/25 13:59:36;;;;;;;26.98;18.23;;;20.50;39.20;;;;;;5036132;28;20014;-89
2022/03/25 14:02:20;;;;;;;28.15;19.25;;;20.50;38.10;;;;;;5035810;28;20029;-88
2022/03/25 14:04:46;;;;;;;28.00;18.80;;;20.50;38.70;;;;;;5029068;28;20336;-89
2022/03/25 14:07:17;;;;;;;28.55;19.85;;;20.60;38.60;;;;;;5052277;28;20036;-90
2022/03/25 14:09:42;;;;;;;30.38;18.17;;;20.60;38.80;;;;;;5018135;28;20013;-90
2022/03/25 14:12:14;;;;;;;30.20;19.15;;;20.70;38.20;;;;;;5036148;28;20045;-90
2022/03/25 14:15:01;;;;;;;26.88;18.70;;;20.60;38.30;;;;;;5030178;28;20033;-88
2022/03/25 14:17:37;;;;;;;28.90;19.58;;;20.50;39.20;;;;;;5031262;28;20060;-88
2022/03/25 14:20:09;;;;;;;28.67;18.33;;;20.50;36.90;;;;;;5020860;28;20030;-90
2022/03/25 14:22:43;;;;;;;25.67;17.02;;;20.60;37.30;;;;;;5018023;28;20049;-88
2022/03/25 14:25:13;;;;;;;27.95;18.85;;;20.70;37.00;;;;;;5022302;28;20032;-88
2022/03/25 14:27:47;;;;;;;29.65;18.95;;;20.30;37.80;;;;;;5020464;28;20022;-89
2022/03/25 14:30:13;;;;;;;26.98;18.13;;;20.10;37.70;;;;;;5016805;28;20056;-87
2022/03/25 14:32:39;;;;;;;27.15;18.23;;;20.20;38.40;;;;;;5020022;28;20029;-89
2022/03/25 14:35:05;;;;;;;28.58;18.75;;;20.20;38.70;;;;;;5015353;28;20029;-89
2022/03/25 14:37:31;;;;;;;26.77;18.02;;;20.20;38.60;;;;;;5021365;28;20498;-87
2022/03/25 14:39:57;;;;;;;32.05;19.55;;;20.20;39.00;;;;;;5025750;28;20089;-89
2022/03/25 14:42:23;;;;;;;28.83;18.30;;;20.20;38.90;;;;;;5020215;28;20084;-90
2022/03/25 14:44:50;;;;;;;31.55;19.83;;;20.70;39.20;;;;;;5031158;28;20906;-89
2022/03/25 14:47:16;;;;;;;31.45;19.30;;;20.20;38.80;;;;;;5018229;28;20030;-88
2022/03/25 14:49:42;;;;;;;31.17;19.73;;;20.30;38.50;;;;;;5033216;28;20037;-89
2022/03/25 14:52:10;;;;;;;30.77;19.45;;;20.10;38.60;;;;;;5033466;28;20112;-89
2022/03/25 14:54:37;;;;;;;31.15;19.23;;;20.10;38.40;;;;;;5029787;28;20337;-90
2022/03/25 14:57:04;;;;;;;32.60;20.30;;;20.10;39.10;;;;;;5016211;28;20080;-88
2022/03/25 14:59:30;;;;;;;35.85;20.98;;;20.00;40.30;;;;;;5033873;28;20029;-88
2022/03/25 15:01:56;;;;;;;34.45;21.52;;;20.10;40.40;;;;;;5014347;28;20025;-90
2022/03/25 15:04:25;;;;;;;32.22;20.35;;;20.00;39.60;;;;;;5015951;28;20033;-90
2022/03/25 15:06:51;;;;;;;33.38;20.50;;;20.00;40.00;;;;;;5019262;28;20555;-88
2022/03/25 15:09:17;;;;;;;31.08;19.50;;;;;;;;;;5018645;28;20086;-87
2022/03/25 15:11:43;;;;;;;30.20;19.23;;;20.00;38.60;;;;;;5020969;28;20391;-87
2022/03/25 15:14:09;;;;;;;32.45;19.05;;;;;;;;;;5022292;28;20037;-88
2022/03/25 15:16:35;;;;;;;29.42;18.02;;;19.90;38.50;;;;;;5037297;28;20040;-89
2022/03/25 15:19:01;;;;;;;29.00;18.80;;;19.80;37.80;;;;;;5019527;28;20587;-87
2022/03/25 15:21:27;;;;;;;30.48;19.73;;;20.10;38.50;;;;;;5019122;28;20040;-89
2022/03/25 15:23:53;;;;;;;25.65;17.30;;;19.80;38.90;;;;;;5017971;28;20029;-90
2022/03/25 15:26:20;;;;;;;25.20;17.20;;;19.80;36.80;;;;;;5013998;28;20022;-91
2022/03/25 15:28:46;;;;;;;25.85;16.80;;;;;;;;;;5022642;28;20025;-89
2022/03/25 15:36:41;;;;;;;28.23;17.63;;;;;;;;;;5031490;28;20112;-88
2022/03/25 15:39:07;;;;;;;30.08;17.80;;;19.60;36.70;;;;;;5018973;28;20037;-88
2022/03/25 15:41:33;;;;;;;26.70;17.10;;;;;;;;;;5023353;28;20582;-90
2022/03/25 15:43:59;;;;;;;28.33;18.05;;;19.60;36.20;;;;;;5017923;28;20112;-89
2022/03/25 15:46:25;;;;;;;26.15;17.17;;;19.50;36.40;;;;;;5018225;28;20476;-90
2022/03/25 15:48:50;;;;;;;28.23;16.95;;;19.50;36.70;;;;;;5033502;28;20052;-86
2022/03/25 15:51:20;;;;;;;30.33;18.20;;;19.50;36.80;;;;;;5017438;28;20029;-89
2022/03/25 15:53:47;;;;;;;28.55;18.45;;;;;;;;;;5018790;28;20079;-89
2022/03/25 15:56:13;;;;;;;29.90;18.45;;;19.40;38.40;;;;;;5037697;28;20033;-89
2022/03/25 15:58:39;;;;;;;31.48;20.08;;;;;;;;;;5019290;28;20116;-89
2022/03/25 16:01:06;;;;;;;27.92;18.67;;;;;;;;;;5000553;28;20037;-89
2022/03/25 16:03:33;;;;;;;33.63;20.30;;;;;;;;;;5025242;28;20044;-89
2022/03/25 16:06:01;;;;;;;33.65;20.38;;;19.30;38.80;;;;;;5017798;28;20029;-89
2022/03/25 16:08:27;;;;;;;33.33;20.80;;;19.30;43.80;;;;;;5018506;28;20033;-89
2022/03/25 16:10:54;;;;;;;32.00;20.35;;;;;;;;;;5022490;28;20032;-89
2022/03/25 16:13:21;;;;;;;32.40;19.33;;;;;;;;;;5016810;28;20091;-89
2022/03/25 16:15:48;;;;;;;30.02;19.67;;;;;;;;;;5019969;28;20064;-90
2022/03/25 16:18:14;;;;;;;34.67;20.77;;;;;;;;;;5017553;28;20066;-88
2022/03/25 16:20:40;;;;;;;38.92;23.55;;;;;;;;;;5017951;28;20026;-86
2022/03/25 16:23:06;;;;;;;44.78;23.95;;;;;;;;;;5015996;28;20025;-91
2022/03/25 16:25:33;;;;;;;38.42;23.33;;;;;;;;;;5017216;28;20029;-89
2022/03/25 16:27:59;;;;;;;40.90;23.60;;;;;;;;;;5022999;28;20037;-87
2022/03/25 16:30:26;;;;;;;40.53;24.30;;;;;;;;;;5017631;28;20041;-89
2022/03/25 16:32:53;;;;;;;37.85;23.85;;;18.70;41.90;;;;;;5019829;28;20045;-88
2022/03/25 16:35:19;;;;;;;38.55;22.95;;;18.70;42.60;;;;;;5015641;28;20037;-89
2022/03/25 16:37:46;;;;;;;42.00;24.70;;;;;;;;;;5024709;28;20026;-86
2022/03/25 16:40:16;;;;;;;44.08;25.15;;;18.50;42.70;;;;;;5034732;28;21410;-87
2022/03/25 16:42:43;;;;;;;42.50;25.35;;;18.50;43.40;;;;;;5021200;28;20021;-87
2022/03/25 16:45:10;;;;;;;44.40;26.73;;;18.30;44.20;;;;;;5014648;28;20036;-89
2022/03/25 16:47:36;;;;;;;41.67;25.20;;;;;;;;;;5023739;28;20025;-90
2022/03/25 16:50:02;;;;;;;46.72;27.15;;;;;;;;;;5036937;28;20455;-91
2022/03/25 16:52:29;;;;;;;41.65;23.65;;;;;;;;;;5011951;28;20099;-89
2022/03/25 16:54:55;;;;;;;43.50;24.85;;;;;;;;;;5018800;28;20655;-89
2022/03/25 16:57:20;;;;;;;49.28;26.48;;;18.20;44.10;;;;;;5021056;28;20112;-89
2022/03/25 16:59:46;;;;;;;39.60;25.08;;;;;;;;;;5038893;28;20014;-89
2022/03/25 17:02:13;;;;;;;41.45;23.00;;;;;;;;;;5039247;28;20110;-89
2022/03/25 17:04:39;;;;;;;41.00;20.63;;;;;;;;;;5017239;28;20029;-85
2022/03/25 17:07:05;;;;;;;35.33;20.50;;;;;;;;;;5024193;28;20044;-89
2022/03/25 17:09:31;;;;;;;40.80;22.55;;;;;;;;;;5037317;28;20564;-90
2022/03/25 17:11:57;;;;;;;34.35;19.92;;;17.90;42.50;;;;;;5032709;28;20033;-89
2022/03/25 17:14:23;;;;;;;33.75;20.30;;;;;;;;;;5019530;28;20109;-88
2022/03/25 17:16:50;;;;;;;30.55;19.10;;;;;;;;;;5033858;28;20029;-88
2022/03/25 17:19:16;;;;;;;36.47;19.67;;;17.70;41.60;;;;;;5032805;28;20052;-87
2022/03/25 17:21:42;;;;;;;33.85;19.02;;;;;;;;;;5031840;28;20025;-89